Time;durP1;ratioP1;P1;durP2;ratioP2;P2;SDS_P1;SDS_P2;PMS_P1;PMS_P2;Temp;Humidity;BMP_temperature;BMP_pressure;BME280_temperature;BME280_humidity;BME280_pressure;Samples;Min_cycle;Max_cycle;Signal;HPM_P1;HPM_P2
2021/01/25 00:01:30;;;;;;;10.45;5.12;;;;;;;1.04;100.00;97316.50;4125355;85;28703;-77
2021/01/25 00:07:33;;;;;;;12.68;5.25;;;;;;;0.87;100.00;97311.39;4124461;85;43601;-77
2021/01/25 00:13:35;;;;;;;13.50;5.55;;;;;;;1.02;100.00;97317.23;4125431;85;28589;-77
2021/01/25 00:19:37;;;;;;;12.58;4.85;;;;;;;0.91;100.00;97302.02;4125835;85;28602;-77
2021/01/25 00:25:39;;;;;;;14.45;6.10;;;;;;;0.83;100.00;97295.94;4124717;85;28561;-78
2021/01/25 00:31:41;;;;;;;16.17;6.08;;;;;;;0.98;100.00;97297.48;4129167;84;28584;-78
2021/01/25 00:37:44;;;;;;;12.25;4.97;;;;;;;1.16;100.00;97292.00;4139352;85;28546;-77
2021/01/25 00:43:46;;;;;;;12.23;5.55;;;;;;;1.10;100.00;97284.40;4124541;85;28560;-77
2021/01/25 00:49:48;;;;;;;14.07;5.97;;;;;;;1.18;100.00;97285.47;4136098;85;29266;-78
2021/01/25 00:55:50;;;;;;;15.63;6.12;;;;;;;1.31;100.00;97281.11;4128645;85;28615;-78
2021/01/25 01:01:53;;;;;;;17.57;6.70;;;;;;;1.31;100.00;97289.05;4124691;85;28649;-77
2021/01/25 01:07:55;;;;;;;15.95;5.70;;;;;;;1.44;100.00;97282.33;4124660;85;28573;-78
2021/01/25 01:13:58;;;;;;;14.05;5.97;;;;;;;1.50;100.00;97289.42;4124668;85;28675;-78
2021/01/25 01:20:00;;;;;;;15.48;6.37;;;;;;;1.44;100.00;97278.88;4123757;85;44008;-78
2021/01/25 01:26:03;;;;;;;15.10;7.03;;;;;;;1.46;100.00;97272.85;4123335;85;28583;-78
2021/01/25 01:32:05;;;;;;;16.05;6.40;;;;;;;1.37;100.00;97262.52;4123525;85;28565;-77
2021/01/25 01:38:07;;;;;;;19.50;7.70;;;;;;;1.33;100.00;97262.66;4054933;87;28666;-77
2021/01/25 01:44:10;;;;;;;19.73;6.90;;;;;;;1.33;100.00;97249.42;4144526;85;28581;-77
2021/01/25 01:50:13;;;;;;;21.52;8.93;;;;;;;1.25;100.00;97246.53;4049602;86;28602;-77
2021/01/25 01:56:16;;;;;;;14.87;6.17;;;;;;;1.26;100.00;97247.33;4123625;85;28654;-78
2021/01/25 02:02:18;;;;;;;18.27;7.78;;;;;;;1.21;100.00;97247.97;4123628;85;28579;-78
2021/01/25 02:08:22;;;;;;;19.42;7.42;;;;;;;1.17;100.00;97256.06;4049286;87;28637;-78
2021/01/25 02:14:25;;;;;;;19.82;7.95;;;;;;;0.96;100.00;97251.41;4050076;86;28564;-78
2021/01/25 02:20:34;;;;;;;16.62;7.22;;;;;;;0.85;100.00;97260.52;4054268;86;43915;-77
2021/01/25 02:27:09;;;;;;;16.40;6.67;;;;;;;0.91;100.00;97271.59;4053068;86;28588;-77
2021/01/25 02:33:12;;;;;;;16.13;6.87;;;;;;;0.91;100.00;97275.56;4104036;85;28667;-77
2021/01/25 02:39:16;;;;;;;14.95;6.28;;;;;;;0.88;100.00;97277.29;4102911;86;28583;-77
2021/01/25 02:45:19;;;;;;;18.10;6.10;;;;;;;0.86;100.00;97280.66;4089369;86;28565;-77
2021/01/25 02:51:22;;;;;;;19.37;7.03;;;;;;;0.87;100.00;97275.67;4103678;86;43973;-76
2021/01/25 02:57:24;;;;;;;15.53;6.50;;;;;;;0.83;100.00;97276.59;4088734;86;28585;-78
2021/01/25 03:03:29;;;;;;;17.75;6.70;;;;;;;0.86;100.00;97279.34;4088354;86;28591;-77
2021/01/25 03:09:32;;;;;;;14.93;5.87;;;;;;;0.74;100.00;97276.57;4090029;86;28573;-77
2021/01/25 03:15:37;;;;;;;14.10;5.83;;;;;;;0.85;100.00;97281.69;4087927;86;28596;-77
2021/01/25 03:21:52;;;;;;;15.33;6.70;;;;;;;0.87;100.00;97277.81;4068142;86;28569;-77
2021/01/25 03:27:54;;;;;;;18.65;7.10;;;;;;;0.85;100.00;97281.69;4087971;86;28546;-76
2021/01/25 03:33:56;;;;;;;17.00;6.60;;;;;;;0.79;100.00;97282.02;4104965;85;43948;-77
2021/01/25 03:39:58;;;;;;;15.15;6.17;;;;;;;0.74;100.00;97294.56;4125160;85;43949;-77
2021/01/25 03:46:01;;;;;;;18.00;7.03;;;;;;;0.81;100.00;97278.65;4124227;85;28587;-77
2021/01/25 03:52:04;;;;;;;14.45;5.83;;;;;;;0.80;100.00;97272.56;4125844;85;28689;-77
2021/01/25 03:58:06;;;;;;;14.50;5.87;;;;;;;0.88;100.00;97286.05;4122895;85;43912;-77
2021/01/25 04:04:08;;;;;;;17.60;6.85;;;;;;;0.80;100.00;97279.67;4125506;85;44045;-77
2021/01/25 04:10:12;;;;;;;14.60;6.58;;;;;;;0.75;100.00;97275.02;4125852;85;28613;-77
2021/01/25 04:16:14;;;;;;;16.40;6.47;;;;;;;0.76;100.00;97281.92;4057431;86;28572;-78
2021/01/25 04:22:17;;;;;;;15.35;6.53;;;;;;;0.77;100.00;97269.00;4067050;86;43950;-76
2021/01/25 04:28:19;;;;;;;19.30;6.83;;;;;;;0.69;100.00;97272.70;4109058;85;28561;-77
2021/01/25 04:34:21;;;;;;;14.95;6.83;;;;;;;0.61;100.00;97282.72;4135278;85;28588;-78
2021/01/25 04:40:24;;;;;;;18.73;7.80;;;;;;;0.58;100.00;97272.05;4125740;85;28586;-79
2021/01/25 04:46:27;;;;;;;14.68;5.95;;;;;;;0.51;100.00;97273.90;4124373;85;43951;-79
2021/01/25 04:52:30;;;;;;;15.58;6.90;;;;;;;0.57;100.00;97269.11;4064491;86;43958;-79
2021/01/25 04:58:33;;;;;;;18.70;8.25;;;;;;;0.55;100.00;97264.02;4055929;86;28607;-80
2021/01/25 05:04:35;;;;;;;18.62;8.70;;;;;;;0.52;100.00;97260.48;4054428;87;43926;-78
2021/01/25 05:10:38;;;;;;;18.90;8.88;;;;;;;0.47;100.00;97255.52;4053801;86;44020;-79
2021/01/25 05:16:41;;;;;;;20.68;8.98;;;;;;;0.54;100.00;97253.14;4054194;86;43937;-79
2021/01/25 05:22:43;;;;;;;24.10;9.98;;;;;;;0.50;100.00;97250.63;4056044;87;44248;-77
2021/01/25 05:28:46;;;;;;;18.82;8.73;;;;;;;0.50;100.00;97264.34;4058384;86;44031;-77
2021/01/25 05:34:48;;;;;;;22.58;9.25;;;;;;;0.60;100.00;97262.59;4060772;85;43915;-77
2021/01/25 05:40:56;;;;;;;22.05;9.45;;;;;;;0.59;100.00;97269.70;4050119;86;43938;-76
2021/01/25 05:47:06;;;;;;;18.62;8.35;;;;;;;0.53;100.00;97269.23;4049540;86;43938;-77
2021/01/25 05:53:11;;;;;;;21.33;10.40;;;;;;;0.53;100.00;97260.77;3981657;88;44492;-77
2021/01/25 05:59:13;;;;;;;20.30;9.78;;;;;;;0.54;100.00;97264.24;4057092;86;43919;-77
2021/01/25 06:05:30;;;;;;;22.02;10.65;;;;;;;0.45;100.00;97270.78;4028346;86;28570;-77
2021/01/25 06:11:33;;;;;;;21.77;10.38;;;;;;;0.47;100.00;97278.82;4050933;85;44522;-79
2021/01/25 06:17:38;;;;;;;20.65;10.28;;;;;;;0.46;100.00;97281.66;3993776;87;44437;-77
2021/01/25 06:23:43;;;;;;;26.68;10.63;;;;;;;0.39;100.00;97279.05;4049162;86;28593;-76
2021/01/25 06:29:50;;;;;;;23.63;10.43;;;;;;;0.33;100.00;97285.98;3990049;88;28604;-77
2021/01/25 06:35:53;;;;;;;21.40;10.43;;;;;;;0.36;100.00;97291.34;4047589;86;44491;-77
2021/01/25 06:42:02;;;;;;;21.27;10.58;;;;;;;0.33;100.00;97286.48;4052713;86;28583;-77
2021/01/25 06:48:07;;;;;;;23.70;9.83;;;;;;;0.49;100.00;97299.75;3984625;88;44460;-78
2021/01/25 06:54:12;;;;;;;24.10;10.77;;;;;;;0.62;100.00;97305.50;4040717;86;28951;-78
2021/01/25 07:00:19;;;;;;;25.75;10.93;;;;;;;0.52;100.00;97300.64;4062903;86;28616;-78
2021/01/25 07:06:25;;;;;;;22.93;11.43;;;;;;;0.61;100.00;97306.53;4044755;86;44475;-77
2021/01/25 07:12:28;;;;;;;27.07;11.63;;;;;;;0.66;100.00;97299.59;4051149;86;28615;-77
2021/01/25 07:18:31;;;;;;;26.40;12.40;;;;;;;0.72;100.00;97305.05;4049712;86;28579;-77
2021/01/25 07:24:37;;;;;;;29.25;12.68;;;;;;;0.65;100.00;97311.69;4050158;86;28638;-76
2021/01/25 07:30:39;;;;;;;27.52;13.35;;;;;;;0.69;100.00;97312.91;4050855;86;28594;-77
2021/01/25 07:36:42;;;;;;;28.70;13.22;;;;;;;0.76;100.00;97318.17;4029036;87;43447;-77
2021/01/25 07:42:46;;;;;;;26.90;12.25;;;;;;;0.71;100.00;97316.16;3927894;89;28604;-76
2021/01/25 07:48:51;;;;;;;27.27;13.15;;;;;;;0.65;100.00;97331.53;3966462;89;28689;-78
2021/01/25 07:54:53;;;;;;;32.07;13.13;;;;;;;0.62;100.00;97324.81;4096152;85;28555;-78
2021/01/25 08:00:55;;;;;;;28.57;13.72;;;;;;;0.88;100.00;97324.91;4071605;86;28579;-76
2021/01/25 08:06:59;;;;;;;29.42;14.40;;;;;;;0.87;100.00;97323.30;4071404;86;43409;-77
2021/01/25 08:13:19;;;;;;;30.20;13.55;;;;;;;0.84;100.00;97333.81;4073741;86;28606;-79
2021/01/25 08:19:27;;;;;;;32.23;13.90;;;;;;;0.97;100.00;97322.33;3998733;88;44170;-78
2021/01/25 08:25:30;;;;;;;27.37;13.60;;;;;;;0.83;100.00;97327.70;3984393;87;28557;-79
2021/01/25 08:31:43;;;;;;;30.23;13.78;;;;;;;0.90;100.00;97325.02;4008346;87;28629;-79
2021/01/25 08:37:45;;;;;;;28.85;13.72;;;;;;;0.82;100.00;97324.75;4039649;86;43437;-78
2021/01/25 08:43:55;;;;;;;28.73;13.25;;;;;;;0.97;100.00;97328.95;4055035;86;28553;-80
2021/01/25 08:49:59;;;;;;;31.90;14.28;;;;;;;0.93;100.00;97327.23;4052289;86;28681;-79
2021/01/25 08:56:17;;;;;;;28.20;13.53;;;;;;;1.13;100.00;97330.81;3977358;88;28568;-79
2021/01/25 09:02:23;;;;;;;33.45;14.75;;;;;;;1.14;100.00;97329.27;3987857;88;44130;-77
2021/01/25 09:08:27;;;;;;;26.87;13.13;;;;;;;1.30;100.00;97334.59;3979771;88;28586;-84
2021/01/25 09:14:30;;;;;;;30.77;13.68;;;;;;;1.31;100.00;97342.01;4057335;86;28594;-84
2021/01/25 09:20:32;;;;;;;28.32;12.37;;;;;;;1.39;100.00;97348.38;4035158;86;28615;-80
2021/01/25 09:26:34;;;;;;;29.65;13.48;;;;;;;1.41;100.00;97347.65;4049550;86;29150;-79
2021/01/25 09:32:37;;;;;;;26.62;12.40;;;;;;;1.37;100.00;97353.88;4122585;85;28583;-80
2021/01/25 09:38:39;;;;;;;24.80;12.63;;;;;;;1.44;100.00;97347.74;4135617;85;28949;-78
2021/01/25 09:44:42;;;;;;;28.77;13.62;;;;;;;1.34;100.00;97347.70;4128082;84;28663;-80
2021/01/25 09:50:47;;;;;;;27.17;12.40;;;;;;;1.47;100.00;97345.48;4122293;84;28556;-80
2021/01/25 09:56:49;;;;;;;23.00;11.03;;;;;;;1.60;100.00;97343.23;4125064;85;28580;-80
2021/01/25 10:02:52;;;;;;;21.90;11.10;;;;;;;1.50;100.00;97349.52;4131076;85;28654;-80
2021/01/25 10:08:57;;;;;;;21.62;11.45;;;;;;;1.58;100.00;97349.27;4144079;85;28619;-81
2021/01/25 10:14:59;;;;;;;26.12;11.85;;;;;;;1.63;100.00;97352.09;4129333;85;28944;-81
2021/01/25 10:21:02;;;;;;;19.20;10.48;;;;;;;1.64;100.00;97354.22;4130391;85;28617;-81
2021/01/25 10:27:06;;;;;;;23.15;10.35;;;;;;;1.65;100.00;97362.46;4062277;86;28614;-80
2021/01/25 10:33:08;;;;;;;23.25;10.85;;;;;;;1.63;100.00;97372.47;4015479;84;44448;-78
2021/01/25 10:39:10;;;;;;;21.77;10.78;;;;;;;1.47;100.00;97363.20;4130968;85;28581;-78
2021/01/25 10:45:14;;;;;;;20.95;10.80;;;;;;;1.54;100.00;97367.95;4122382;85;28615;-79
2021/01/25 10:51:16;;;;;;;18.12;10.40;;;;;;;1.38;100.00;97370.06;4057157;86;28641;-80
2021/01/25 10:57:18;;;;;;;23.65;11.00;;;;;;;1.39;100.00;97367.72;4046292;86;44513;-78
2021/01/25 11:03:20;;;;;;;33.40;17.10;;;;;;;1.28;100.00;97368.39;4014345;87;28662;-76
2021/01/25 11:09:23;;;;;;;35.15;17.10;;;;;;;1.28;100.00;97371.04;4129668;85;44347;-77
2021/01/25 11:15:26;;;;;;;33.83;16.27;;;;;;;1.20;100.00;97366.81;4124381;84;28635;-77
2021/01/25 11:21:28;;;;;;;31.45;16.82;;;;;;;1.24;100.00;97371.17;4126884;85;28547;-77
2021/01/25 11:27:31;;;;;;;32.55;15.78;;;;;;;1.27;100.00;97370.74;4138120;85;44132;-76
2021/01/25 11:33:33;;;;;;;38.25;17.75;;;;;;;1.19;100.00;97374.45;4139135;85;28665;-78
2021/01/25 11:39:35;;;;;;;33.48;16.48;;;;;;;1.31;100.00;97370.64;4071269;85;28663;-77
2021/01/25 11:45:38;;;;;;;29.12;13.98;;;;;;;1.34;100.00;97370.20;4015452;87;28637;-76
2021/01/25 11:51:41;;;;;;;33.60;16.02;;;;;;;1.42;100.00;97378.93;4045475;86;28580;-79
2021/01/25 11:57:44;;;;;;;32.10;15.65;;;;;;;1.50;100.00;97380.80;4051957;86;28591;-77
2021/01/25 12:03:46;;;;;;;33.45;15.63;;;;;;;1.42;100.00;97377.08;4058611;86;28585;-78
2021/01/25 12:09:49;;;;;;;29.67;15.43;;;;;;;1.42;100.00;97390.84;3980917;88;44098;-78
2021/01/25 12:15:52;;;;;;;29.20;13.93;;;;;;;1.40;100.00;97383.11;4051263;86;28650;-79
2021/01/25 12:21:54;;;;;;;29.98;14.05;;;;;;;1.16;100.00;97392.09;3989683;88;28601;-79
2021/01/25 12:27:56;;;;;;;24.47;11.90;;;;;;;1.17;100.00;97389.75;4048651;86;28556;-79
2021/01/25 12:33:59;;;;;;;21.97;10.13;;;;;;;1.26;100.00;97394.27;4051261;86;28655;-79
2021/01/25 12:40:01;;;;;;;21.35;10.18;;;;;;;1.23;100.00;97403.45;3986683;87;28594;-80
2021/01/25 12:46:04;;;;;;;26.85;11.22;;;;;;;1.05;100.00;97404.14;4059948;86;28659;-77
2021/01/25 12:52:06;;;;;;;24.18;11.57;;;;;;;1.01;100.00;97404.27;3984650;88;28609;-78
2021/01/25 12:58:08;;;;;;;17.52;8.80;;;;;;;1.07;100.00;97414.53;4061879;86;28655;-79
2021/01/25 13:04:11;;;;;;;18.30;9.98;;;;;;;1.28;100.00;97422.67;4061016;86;28562;-78
2021/01/25 13:10:18;;;;;;;18.27;8.70;;;;;;;1.10;100.00;97432.63;4059508;86;28572;-78
2021/01/25 13:16:20;;;;;;;17.67;8.70;;;;;;;1.21;100.00;97443.09;4046214;87;28635;-77
2021/01/25 13:22:22;;;;;;;14.33;7.58;;;;;;;1.17;100.00;97440.05;4055437;86;28578;-78
2021/01/25 13:28:25;;;;;;;13.78;6.95;;;;;;;1.14;100.00;97470.09;4051740;86;28577;-77
2021/01/25 13:34:27;;;;;;;13.55;7.15;;;;;;;1.05;100.00;97472.16;4051251;85;28673;-78
2021/01/25 13:40:30;;;;;;;13.80;7.28;;;;;;;1.02;100.00;97483.97;4061703;86;43978;-79
2021/01/25 13:46:34;;;;;;;13.80;6.67;;;;;;;1.01;100.00;97487.64;4053741;85;28967;-77
2021/01/25 13:52:36;;;;;;;14.43;7.03;;;;;;;1.00;100.00;97495.28;4062130;86;28635;-77
2021/01/25 13:58:38;;;;;;;14.78;7.37;;;;;;;0.98;100.00;97494.66;4061480;85;28616;-77
2021/01/25 14:04:40;;;;;;;18.80;8.95;;;;;;;0.96;100.00;97501.99;4060230;86;28587;-77
2021/01/25 14:10:42;;;;;;;17.40;9.18;;;;;;;1.01;100.00;97509.31;4055397;86;28646;-78
2021/01/25 14:16:44;;;;;;;17.35;8.58;;;;;;;0.78;100.00;97518.02;4130880;85;43986;-78
2021/01/25 14:22:48;;;;;;;20.05;9.98;;;;;;;0.83;100.00;97525.31;4133279;85;28559;-78
2021/01/25 14:28:50;;;;;;;17.95;9.55;;;;;;;0.85;100.00;97520.66;4132972;85;28553;-77
2021/01/25 14:34:52;;;;;;;20.05;11.05;;;;;;;0.89;100.00;97526.36;4136232;85;28624;-79
2021/01/25 14:40:54;;;;;;;22.10;11.20;;;;;;;0.79;100.00;97533.38;4130043;85;28591;-78
2021/01/25 14:46:56;;;;;;;26.50;12.50;;;;;;;0.76;100.00;97535.11;4135620;85;28597;-78
2021/01/25 14:53:00;;;;;;;22.22;10.98;;;;;;;0.58;100.00;97550.28;4132923;85;28654;-83
2021/01/25 14:59:02;;;;;;;24.27;12.15;;;;;;;0.71;100.00;97560.86;4051598;86;28636;-84
2021/01/25 15:05:06;;;;;;;27.80;13.43;;;;;;;0.54;100.00;97562.57;3989617;88;43423;-84
2021/01/25 15:11:08;;;;;;;21.87;10.35;;;;;;;0.48;100.00;97570.50;4048054;86;44455;-83
2021/01/25 15:17:10;;;;;;;21.02;9.53;;;;;;;0.54;100.00;97591.66;4052954;86;43902;-85
2021/01/25 15:23:13;;;;;;;21.02;8.58;;;;;;;0.49;100.00;97587.50;4127661;85;28647;-82
2021/01/25 15:29:16;;;;;;;19.65;9.18;;;;;;;0.51;100.00;97596.54;4124314;85;43937;-82
2021/01/25 15:35:22;;;;;;;24.35;10.90;;;;;;;0.61;100.00;97616.00;4125506;85;43273;-82
2021/01/25 15:41:24;;;;;;;23.18;10.35;;;;;;;0.53;100.00;97625.74;4128439;85;28559;-83
2021/01/25 15:47:26;;;;;;;27.50;11.55;;;;;;;0.66;100.00;97628.92;4131544;85;43444;-79
2021/01/25 15:53:28;;;;;;;23.80;10.80;;;;;;;0.65;100.00;97642.34;4125265;85;44602;-79
2021/01/25 15:59:30;;;;;;;25.48;10.75;;;;;;;0.59;100.00;97649.77;4125902;85;42886;-79
2021/01/25 16:05:32;;;;;;;23.77;10.72;;;;;;;0.59;100.00;97655.86;4057637;86;28645;-79
2021/01/25 16:11:34;;;;;;;22.20;9.60;;;;;;;0.63;100.00;97659.75;4060650;85;43950;-79
2021/01/25 16:17:41;;;;;;;24.75;12.15;;;;;;;0.63;100.00;97662.40;4124718;85;43392;-79
2021/01/25 16:23:44;;;;;;;26.97;11.68;;;;;;;0.51;100.00;97669.27;4133254;85;28640;-79
2021/01/25 16:29:46;;;;;;;25.95;11.28;;;;;;;0.75;100.00;97672.39;4130087;85;42927;-76
2021/01/25 16:35:49;;;;;;;28.60;11.60;;;;;;;0.77;100.00;97681.73;4128757;85;43978;-77
2021/01/25 16:41:56;;;;;;;29.37;13.40;;;;;;;0.77;100.00;97683.58;4127341;85;43412;-77
2021/01/25 16:47:58;;;;;;;29.48;13.35;;;;;;;0.79;100.00;97682.86;4128747;84;28553;-80
2021/01/25 16:54:00;;;;;;;26.10;11.85;;;;;;;0.68;100.00;97694.86;4067272;86;28591;-78
2021/01/25 17:00:06;;;;;;;31.15;13.32;;;;;;;0.82;100.00;97704.94;4126415;85;43388;-77
2021/01/25 17:06:09;;;;;;;29.15;13.08;;;;;;;0.69;100.00;97701.78;4131334;85;43488;-78
2021/01/25 17:12:11;;;;;;;30.88;14.07;;;;;;;0.81;100.00;97698.02;4131591;85;44128;-79
2021/01/25 17:18:15;;;;;;;31.50;13.58;;;;;;;0.75;100.00;97701.48;4126844;85;43727;-77
2021/01/25 17:24:17;;;;;;;31.97;14.38;;;;;;;0.72;100.00;97704.52;4136166;85;44102;-78
2021/01/25 17:30:22;;;;;;;27.62;12.40;;;;;;;0.66;100.00;97724.65;4131843;85;28616;-77
2021/01/25 17:36:24;;;;;;;27.42;11.83;;;;;;;0.61;100.00;97723.13;4128964;85;43389;-78
2021/01/25 17:42:27;;;;;;;27.52;12.55;;;;;;;0.63;100.00;97717.13;4052950;86;43302;-77
2021/01/25 17:48:29;;;;;;;26.27;11.05;;;;;;;0.58;100.00;97721.69;3985258;88;28634;-77
2021/01/25 17:54:31;;;;;;;26.68;12.70;;;;;;;0.57;100.00;97727.99;4053252;86;43248;-74
2021/01/25 18:00:33;;;;;;;27.85;13.00;;;;;;;0.67;100.00;97734.22;3990192;88;43435;-74
2021/01/25 18:06:35;;;;;;;26.25;11.53;;;;;;;0.63;100.00;97742.25;4053737;86;42956;-76
2021/01/25 18:12:38;;;;;;;25.27;11.65;;;;;;;0.64;100.00;97742.06;4051032;86;43786;-75
2021/01/25 18:18:42;;;;;;;21.23;9.63;;;;;;;0.58;100.00;97738.08;4126656;85;28605;-74
2021/01/25 18:24:45;;;;;;;24.80;11.65;;;;;;;0.63;100.00;97747.55;4127244;85;43590;-77
2021/01/25 18:30:47;;;;;;;31.65;14.18;;;;;;;0.56;100.00;97751.48;4135137;84;28606;-76
2021/01/25 18:36:50;;;;;;;30.48;13.68;;;;;;;0.46;100.00;97755.02;4123805;85;28550;-76
2021/01/25 18:42:53;;;;;;;27.10;12.33;;;;;;;0.53;100.00;97757.19;4124008;85;43427;-77
2021/01/25 18:48:55;;;;;;;25.40;12.15;;;;;;;0.59;100.00;97763.52;4116305;85;28618;-77
2021/01/25 18:54:57;;;;;;;24.80;10.98;;;;;;;0.48;100.00;97768.36;4121407;85;43234;-76
2021/01/25 19:00:59;;;;;;;25.75;12.15;;;;;;;0.48;100.00;97776.78;4118348;85;29706;-77
2021/01/25 19:07:02;;;;;;;26.70;12.37;;;;;;;0.41;100.00;97789.45;4124699;85;43159;-78
2021/01/25 19:13:06;;;;;;;29.32;13.40;;;;;;;0.50;100.00;97785.33;4124579;85;43439;-78
2021/01/25 19:19:08;;;;;;;29.60;13.68;;;;;;;0.60;100.00;97792.91;4126413;85;43447;-76
2021/01/25 19:25:12;;;;;;;26.62;12.10;;;;;;;0.58;100.00;97810.30;4119683;85;43048;-76
2021/01/25 19:31:16;;;;;;;27.70;13.05;;;;;;;0.47;100.00;97811.69;4118651;85;43463;-76
2021/01/25 19:37:18;;;;;;;32.70;16.05;;;;;;;0.64;100.00;97810.84;4060906;85;44143;-76
2021/01/25 19:43:20;;;;;;;26.33;13.25;;;;;;;0.62;100.00;97809.40;4060117;86;28653;-75
2021/01/25 19:49:23;;;;;;;29.02;14.58;;;;;;;0.61;100.00;97813.86;3990835;88;28617;-76
2021/01/25 19:55:26;;;;;;;31.15;14.05;;;;;;;0.70;100.00;97819.81;3992598;87;44402;-80
2021/01/25 20:01:30;;;;;;;28.65;13.30;;;;;;;0.59;100.00;97829.12;4047483;86;43394;-78
2021/01/25 20:07:32;;;;;;;25.48;12.25;;;;;;;0.62;100.00;97839.82;4060293;86;28556;-80
2021/01/25 20:13:35;;;;;;;30.02;13.43;;;;;;;0.62;100.00;97849.08;3986367;88;43427;-78
2021/01/25 20:19:37;;;;;;;27.42;12.80;;;;;;;0.59;100.00;97846.31;3991491;88;43332;-76
2021/01/25 20:25:41;;;;;;;27.27;13.18;;;;;;;0.64;100.00;97849.70;4064429;86;43413;-78
2021/01/25 20:31:47;;;;;;;27.82;12.55;;;;;;;0.62;100.00;97861.78;4060520;86;28603;-77
2021/01/25 20:37:51;;;;;;;25.62;12.43;;;;;;;0.64;100.00;97869.53;4060613;85;43389;-78
2021/01/25 20:43:54;;;;;;;26.82;13.05;;;;;;;0.59;100.00;97879.38;3993206;88;28624;-77
2021/01/25 20:49:56;;;;;;;36.60;16.02;;;;;;;0.64;100.00;97879.63;4067185;86;44447;-74
2021/01/25 20:56:00;;;;;;;28.25;14.58;;;;;;;0.63;100.00;97892.55;4053475;85;43410;-75
2021/01/25 21:02:02;;;;;;;30.52;14.50;;;;;;;0.58;100.00;97897.59;3987156;88;44196;-75
2021/01/25 21:08:08;;;;;;;31.55;14.15;;;;;;;0.58;100.00;97898.11;4059568;86;44159;-75
2021/01/25 21:14:10;;;;;;;;;;;;;;;0.60;100.00;97897.41;4067025;86;28646;-77
2021/01/25 21:20:14;;;;;;;31.25;14.20;;;;;;;0.54;100.00;97906.94;4069597;86;44124;-77
2021/01/25 21:26:18;;;;;;;26.82;14.20;;;;;;;0.54;100.00;97912.22;4056618;86;28618;-76
2021/01/25 21:32:20;;;;;;;29.87;14.50;;;;;;;0.53;100.00;97915.36;4066770;86;43765;-76
2021/01/25 21:38:22;;;;;;;32.35;15.28;;;;;;;0.48;100.00;97923.08;4057977;86;44088;-77
2021/01/25 21:44:24;;;;;;;26.85;13.40;;;;;;;0.49;100.00;97931.81;4065506;86;43062;-77
2021/01/25 21:50:28;;;;;;;27.25;13.62;;;;;;;0.48;100.00;97928.36;4130062;85;43423;-77
2021/01/25 21:56:30;;;;;;;27.93;13.50;;;;;;;0.54;100.00;97936.83;4132542;85;43432;-77
2021/01/25 22:02:33;;;;;;;27.50;13.25;;;;;;;0.47;100.00;97945.73;4059507;86;43418;-76
2021/01/25 22:08:35;;;;;;;24.30;11.53;;;;;;;0.49;100.00;97945.03;4054056;86;43672;-77
2021/01/25 22:14:38;;;;;;;28.67;12.70;;;;;;;0.44;100.00;97955.38;3989460;88;43431;-76
2021/01/25 22:20:41;;;;;;;28.90;12.82;;;;;;;0.48;100.00;97964.56;4058792;86;43465;-77
2021/01/25 22:26:44;;;;;;;25.23;11.57;;;;;;;0.38;100.00;97968.35;4057858;86;28597;-78
2021/01/25 22:32:48;;;;;;;28.02;12.78;;;;;;;0.39;100.00;97974.47;4018368;87;43414;-78
2021/01/25 22:38:52;;;;;;;26.48;12.00;;;;;;;0.30;100.00;97977.73;4057290;86;42873;-77
2021/01/25 22:44:55;;;;;;;23.30;11.85;;;;;;;0.30;100.00;97984.34;4049580;86;28583;-77
2021/01/25 22:50:57;;;;;;;26.57;12.10;;;;;;;0.20;100.00;97989.14;3990683;88;43258;-76
2021/01/25 22:57:00;;;;;;;26.73;12.65;;;;;;;0.18;100.00;97987.20;4059727;86;28558;-79
2021/01/25 23:03:05;;;;;;;25.80;11.88;;;;;;;0.19;100.00;97991.47;4053734;85;43471;-77
2021/01/25 23:09:08;;;;;;;29.45;13.48;;;;;;;0.25;100.00;98000.78;4054851;86;43418;-78
2021/01/25 23:15:24;;;;;;;30.05;13.20;;;;;;;0.21;100.00;97999.53;4051247;86;43855;-78
2021/01/25 23:21:26;;;;;;;28.27;12.00;;;;;;;0.17;100.00;98000.10;4043841;86;43389;-78
2021/01/25 23:27:28;;;;;;;27.70;12.07;;;;;;;0.05;100.00;98009.03;4053556;86;28640;-77
2021/01/25 23:33:32;;;;;;;27.02;12.00;;;;;;;0.05;100.00;98015.14;4065722;86;43367;-77
2021/01/25 23:39:34;;;;;;;28.57;13.08;;;;;;;0.12;100.00;98010.75;4050872;86;28638;-76
2021/01/25 23:45:36;;;;;;;29.23;12.85;;;;;;;0.23;100.00;98017.86;4065293;86;43413;-78
2021/01/25 23:52:35;;;;;;;25.00;10.98;;;;;;;0.25;100.00;98024.58;4056144;86;42873;-78
2021/01/25 23:59:13;;;;;;;;;;;;;;;0.30;100.00;98027.17;4064304;86;28595;-76
